Forside
METAR-TAF:

METAR-TAF

Lufthavne :

Price County Airport

Phillips, Wisconsin, USA

Breddekreds: 45-42N, længdekreds: 090-24W, højde: 449 m

Aktuelle vejr

Denne rapport blev lavet for 19 minutter siden, kl. 03:35 UTC
Vind 10 kt fra østsydøst med vindstød på up til 15 kt
Temperatur -6°C
Fugtighed 86%
Tryk 1020 hPa
Sigt: 4.0 km
Spredte skyer i en højde af 1400 ft
Brudte skyer i en højde af 2100 ft
Overskyet i en højde af 3600 ft
let sne

METAR: KPBH 180335Z AUTO 12010G15KT 2 1/2SM -SN SCT014 BKN021 OVC036 M06/M08 A3011 RMK AO2 P0001 T10651080

Tid: 21:54 (03:54 UTC)


TAF: fraværende

Vejrobservationer og prognoser fra mere end 4000 lufthavne (METAR og TAF).

De gule og røde prikker repræsenterer de meteorologiske stationer.

Flyt musen over at se navnet på stationen.

Så klik over at se vejr observationer og prognoser.

At skifte det kort: Klik på de grønne knapper med et sort kors for at zoome ind; på den grønne knap med en bindestreg for at zoome ud; eller på de grønne pile for tilstødende kort.


METAR-TAF: